createdAt,value
2023-04-25T00:03:41.286Z,5.90
2023-04-25T00:08:44.987Z,6.07
2023-04-25T00:13:51.026Z,6.55
2023-04-25T00:18:54.842Z,6.13
2023-04-25T00:23:58.510Z,6.28
2023-04-25T00:29:03.446Z,7.85
2023-04-25T00:34:07.041Z,6.38
2023-04-25T00:39:10.638Z,6.38
2023-04-25T00:44:18.150Z,7.35
2023-04-25T00:49:21.631Z,5.90
2023-04-25T00:54:25.450Z,6.20
2023-04-25T00:59:31.067Z,6.50
2023-04-25T01:04:34.779Z,6.68
2023-04-25T01:09:38.306Z,6.00
2023-04-25T01:14:43.268Z,6.65
2023-04-25T01:19:47.425Z,6.50
2023-04-25T01:24:52.552Z,6.55
2023-04-25T01:29:56.799Z,6.82
2023-04-25T01:35:00.274Z,6.57
2023-04-25T01:40:06.577Z,6.82
2023-04-25T01:45:11.892Z,7.00
2023-04-25T01:50:15.503Z,6.97
2023-04-25T01:55:20.450Z,6.20
2023-04-25T02:05:27.480Z,6.47
2023-04-25T02:10:32.546Z,6.00
2023-04-25T02:15:36.103Z,5.72
2023-04-25T02:21:02.227Z,6.00
2023-04-25T02:26:07.478Z,6.70
2023-04-25T02:31:11.212Z,5.78
2023-04-25T02:36:14.813Z,5.78
2023-04-25T02:41:19.807Z,6.10
2023-04-25T02:46:32.523Z,5.28
2023-04-25T02:51:41.686Z,6.28
2023-04-25T02:56:46.660Z,6.30
2023-04-25T03:01:50.105Z,6.35
2023-04-25T03:06:54.261Z,6.80
2023-04-25T03:11:59.269Z,6.38
2023-04-25T03:17:02.952Z,6.18
2023-04-25T03:22:06.472Z,6.70
2023-04-25T03:27:11.475Z,7.07
2023-04-25T03:32:15.092Z,7.13
2023-04-25T03:37:18.768Z,7.03
2023-04-25T03:42:24.684Z,6.88
2023-04-25T03:47:28.190Z,6.00
2023-04-25T03:52:31.806Z,6.30
2023-04-25T03:57:36.735Z,6.20
2023-04-25T04:02:41.857Z,5.90
2023-04-25T04:07:46.748Z,6.47
2023-04-25T04:12:51.664Z,7.22
2023-04-25T04:17:55.352Z,6.72
2023-04-25T04:22:58.931Z,7.37
2023-04-25T04:28:03.962Z,5.97
2023-04-25T04:33:08.649Z,5.72
2023-04-25T04:38:13.518Z,5.45
2023-04-25T04:43:20.033Z,5.50
2023-04-25T04:48:24.850Z,5.30
2023-04-25T04:53:28.301Z,5.03
2023-04-25T05:03:36.534Z,5.10
2023-04-25T05:08:40.195Z,4.93
2023-04-25T05:13:45.286Z,4.88
2023-04-25T05:18:49.253Z,4.60
2023-04-25T05:23:53.092Z,4.55
2023-04-25T05:28:58.200Z,4.82
2023-04-25T05:34:01.726Z,4.68
2023-04-25T05:39:05.872Z,4.70
2023-04-25T05:44:10.967Z,5.07
2023-04-25T05:49:14.525Z,5.50
2023-04-25T05:54:17.970Z,5.05
2023-04-25T05:59:22.895Z,5.13
2023-04-25T06:04:27.583Z,4.95
2023-04-25T06:09:31.356Z,5.13
2023-04-25T06:14:36.545Z,5.32
2023-04-25T06:19:40.312Z,6.70
2023-04-25T06:24:43.883Z,7.28
2023-04-25T06:29:48.749Z,7.53
2023-04-25T06:34:52.238Z,7.47
2023-04-25T06:39:55.722Z,8.45
2023-04-25T06:45:00.828Z,9.15
2023-04-25T06:50:04.563Z,9.05
2023-04-25T06:55:09.035Z,8.35
2023-04-25T07:00:15.499Z,8.63
2023-04-25T07:05:19.411Z,7.38
2023-04-25T07:10:23.141Z,8.98
2023-04-25T07:15:28.036Z,7.28
2023-04-25T07:20:32.180Z,6.95
2023-04-25T07:25:36.252Z,5.78
2023-04-25T07:30:41.257Z,5.60
2023-04-25T07:35:44.710Z,5.90
2023-04-25T07:40:48.201Z,4.80
2023-04-25T07:45:53.146Z,4.95
2023-04-25T07:50:56.658Z,5.88
2023-04-25T07:56:00.148Z,5.28
2023-04-25T08:01:05.379Z,5.38
2023-04-25T08:06:09.153Z,4.93
2023-04-25T08:11:13.015Z,5.18
2023-04-25T08:16:17.987Z,4.93
2023-04-25T08:21:21.613Z,4.10
2023-04-25T08:26:25.082Z,3.95
2023-04-25T08:31:30.272Z,4.22
2023-04-25T08:36:39.441Z,4.70
2023-04-25T08:41:45.660Z,4.10
2023-04-25T08:46:51.829Z,4.80
2023-04-25T08:51:59.408Z,5.07
2023-04-25T08:57:05.522Z,5.10
2023-04-25T09:02:12.751Z,5.35
2023-04-25T09:07:19.724Z,5.93
2023-04-25T09:12:23.765Z,5.47
2023-04-25T09:22:33.292Z,4.88
2023-04-25T09:27:36.963Z,5.10
2023-04-25T09:32:42.339Z,4.63
2023-04-25T09:37:45.849Z,5.57
2023-04-25T09:42:49.422Z,5.00
2023-04-25T09:47:59.014Z,4.75
2023-04-25T09:53:06.657Z,4.32
2023-04-25T09:58:12.912Z,5.00
2023-04-25T10:03:19.722Z,4.95
2023-04-25T10:08:24.999Z,5.00
2023-04-25T10:13:29.703Z,5.00
2023-04-25T10:18:35.376Z,4.28
2023-04-25T10:23:39.685Z,4.63
2023-04-25T10:28:58.020Z,5.10
2023-04-25T10:34:03.482Z,4.63
2023-04-25T10:39:10.013Z,3.80
2023-04-25T10:44:13.651Z,3.70
2023-04-25T10:49:35.019Z,4.05
2023-04-25T10:54:43.272Z,4.22
2023-04-25T10:59:47.401Z,3.67
2023-04-25T11:09:57.192Z,4.35
2023-04-25T11:15:05.836Z,4.28
2023-04-25T11:20:12.568Z,4.25
2023-04-25T11:25:17.826Z,4.32
2023-04-25T11:30:22.630Z,5.10
2023-04-25T11:35:27.861Z,3.25
2023-04-25T11:40:33.256Z,3.60
2023-04-25T11:45:39.165Z,3.90
2023-04-25T11:50:44.258Z,3.30
2023-04-25T11:55:47.866Z,3.70
2023-04-25T12:00:51.800Z,2.90
2023-04-25T12:06:05.811Z,3.78
2023-04-25T12:11:23.911Z,3.80
2023-04-25T12:16:27.522Z,3.15
2023-04-25T12:21:35.385Z,3.00
2023-04-25T12:26:49.793Z,3.40
2023-04-25T12:31:55.037Z,4.30
2023-04-25T12:37:00.187Z,3.45
2023-04-25T12:42:06.104Z,3.60
2023-04-25T12:47:11.636Z,3.30
2023-04-25T12:52:16.701Z,3.20
2023-04-25T12:57:20.195Z,3.20
2023-04-25T13:02:23.884Z,3.20
2023-04-25T13:07:28.868Z,2.90
2023-04-25T13:12:32.701Z,3.00
2023-04-25T13:17:36.291Z,3.10
2023-04-25T13:22:42.107Z,2.90
2023-04-25T13:27:46.064Z,3.08
2023-04-25T13:32:49.641Z,3.10
2023-04-25T13:37:54.599Z,3.05
2023-04-25T13:42:58.541Z,3.38
2023-04-25T13:48:02.081Z,2.88
2023-04-25T13:53:07.119Z,2.55
2023-04-25T13:58:11.193Z,3.30
2023-04-25T14:08:19.709Z,2.72
2023-04-25T14:13:24.529Z,2.70
2023-04-25T14:18:28.034Z,3.28
2023-04-25T14:23:32.971Z,2.70
2023-04-25T14:28:36.514Z,2.90
2023-04-25T14:33:42.986Z,3.13
2023-04-25T14:38:47.994Z,2.88
2023-04-25T14:43:51.887Z,3.53
2023-04-25T14:48:57.089Z,4.00
2023-04-25T14:54:02.244Z,3.60
2023-04-25T14:59:05.712Z,3.97
2023-04-25T15:04:09.331Z,3.67
2023-04-25T15:09:14.459Z,3.33
2023-04-25T15:14:18.875Z,3.40
2023-04-25T15:19:23.271Z,3.22
2023-04-25T15:24:28.200Z,3.67
2023-04-25T15:29:32.155Z,2.80
2023-04-25T15:34:36.469Z,3.20
2023-04-25T15:39:41.572Z,2.88
2023-04-25T15:44:45.123Z,3.17
2023-04-25T15:49:48.620Z,3.07
2023-04-25T15:54:53.584Z,3.60
2023-04-25T15:59:57.249Z,3.90
2023-04-25T16:05:00.907Z,3.45
2023-04-25T16:15:13.452Z,3.58
2023-04-25T16:20:17.123Z,3.55
2023-04-25T16:25:23.032Z,3.80
2023-04-25T16:30:26.925Z,3.83
2023-04-25T16:35:32.567Z,3.95
2023-04-25T16:40:37.762Z,3.70
2023-04-25T16:45:41.343Z,4.35
2023-04-25T16:50:44.957Z,3.83
2023-04-25T16:55:49.919Z,4.20
2023-04-25T17:00:53.956Z,4.43
2023-04-25T17:05:57.988Z,4.20
2023-04-25T17:11:03.054Z,4.47
2023-04-25T17:16:07.576Z,5.50
2023-04-25T17:26:16.599Z,7.68
2023-04-25T17:31:20.667Z,7.68
2023-04-25T17:36:24.795Z,14.18
2023-04-25T17:41:29.780Z,18.70
2023-04-25T17:46:33.487Z,13.63
2023-04-25T17:51:37.087Z,10.20
2023-04-25T17:56:42.182Z,10.43
2023-04-25T18:01:47.786Z,8.88
2023-04-25T18:06:51.817Z,10.05
2023-04-25T18:11:56.868Z,7.50
2023-04-25T18:17:00.404Z,5.90
2023-04-25T18:22:04.213Z,6.03
2023-04-25T18:27:09.138Z,5.80
2023-04-25T18:32:12.854Z,5.60
2023-04-25T18:37:16.385Z,6.23
2023-04-25T18:42:22.613Z,6.78
2023-04-25T18:47:26.109Z,6.88
2023-04-25T18:52:29.757Z,4.63
2023-04-25T18:57:34.829Z,3.77
2023-04-25T19:02:38.822Z,3.63
2023-04-25T19:07:42.451Z,3.72
2023-04-25T19:12:49.397Z,3.53
2023-04-25T19:17:53.600Z,3.38
2023-04-25T19:22:57.272Z,3.25
2023-04-25T19:28:02.484Z,3.47
2023-04-25T19:33:06.353Z,3.67
2023-04-25T19:38:09.915Z,3.70
2023-04-25T19:43:14.843Z,4.18
2023-04-25T19:48:18.441Z,4.30
2023-04-25T19:53:21.959Z,4.10
2023-04-25T19:58:27.316Z,3.63
2023-04-25T20:03:30.901Z,3.97
2023-04-25T20:08:36.435Z,4.33
2023-04-25T20:13:41.401Z,4.43
2023-04-25T20:18:44.933Z,4.32
2023-04-25T20:23:48.485Z,3.97
2023-04-25T20:28:53.566Z,4.40
2023-04-25T20:33:57.419Z,4.20
2023-04-25T20:39:01.053Z,4.57
2023-04-25T20:44:07.650Z,4.73
2023-04-25T20:49:11.098Z,5.38
2023-04-25T20:54:14.599Z,4.63
2023-04-25T20:59:19.524Z,4.90
2023-04-25T21:04:23.212Z,4.78
2023-04-25T21:09:27.006Z,4.73
2023-04-25T21:14:31.922Z,4.80
2023-04-25T21:19:35.410Z,4.85
2023-04-25T21:24:38.878Z,5.25
2023-04-25T21:29:43.748Z,5.15
2023-04-25T21:34:47.202Z,4.72
2023-04-25T21:39:50.756Z,4.28
2023-04-25T21:44:56.187Z,5.07
2023-04-25T21:49:59.887Z,4.47
2023-04-25T21:55:03.599Z,4.97
2023-04-25T22:00:24.796Z,4.27
2023-04-25T22:05:29.588Z,4.47
2023-04-25T22:10:33.700Z,4.47
2023-04-25T22:15:38.622Z,4.65
2023-04-25T22:20:42.120Z,3.90
2023-04-25T22:25:46.372Z,3.70
2023-04-25T22:30:51.275Z,3.42
2023-04-25T22:35:54.763Z,3.88
2023-04-25T22:40:58.275Z,4.47
2023-04-25T22:46:03.684Z,5.10
2023-04-25T22:51:07.832Z,4.10
2023-04-25T22:56:11.443Z,4.35
2023-04-25T23:01:19.344Z,4.43
2023-04-25T23:06:23.008Z,4.53
2023-04-25T23:11:26.570Z,4.88
2023-04-25T23:16:31.504Z,4.63
2023-04-25T23:21:35.018Z,4.53
2023-04-25T23:26:38.563Z,4.68
2023-04-25T23:31:43.459Z,5.22
2023-04-25T23:36:48.244Z,4.32
2023-04-25T23:41:51.701Z,4.68
2023-04-25T23:46:56.702Z,5.90
2023-04-25T23:52:00.149Z,6.07
2023-04-25T23:57:04.913Z,5.75
